sensor_id;sensor_type;location;lat;lon;timestamp;pressure;altitude;pressure_sealevel;temperature;humidity
51439;BME280;38816;51.142;-0.974;2023-03-01T00:00:38;101696.66;;;3.96;100.00
51439;BME280;38816;51.142;-0.974;2023-03-01T00:03:04;101692.38;;;3.95;100.00
51439;BME280;38816;51.142;-0.974;2023-03-01T00:05:29;101688.03;;;3.80;100.00
51439;BME280;38816;51.142;-0.974;2023-03-01T00:07:54;101710.69;;;3.77;100.00
51439;BME280;38816;51.142;-0.974;2023-03-01T00:10:20;101683.91;;;3.69;100.00
51439;BME280;38816;51.142;-0.974;2023-03-01T00:12:45;101684.56;;;3.67;100.00
51439;BME280;38816;51.142;-0.974;2023-03-01T00:15:11;101691.88;;;3.62;100.00
51439;BME280;38816;51.142;-0.974;2023-03-01T00:17:36;101691.66;;;3.59;100.00
51439;BME280;38816;51.142;-0.974;2023-03-01T00:20:02;101704.50;;;3.61;100.00
51439;BME280;38816;51.142;-0.974;2023-03-01T00:22:27;101688.50;;;3.50;100.00
51439;BME280;38816;51.142;-0.974;2023-03-01T00:24:55;101700.34;;;3.49;100.00
51439;BME280;38816;51.142;-0.974;2023-03-01T00:27:21;101705.09;;;3.45;100.00
51439;BME280;38816;51.142;-0.974;2023-03-01T00:29:46;101710.09;;;3.43;100.00
51439;BME280;38816;51.142;-0.974;2023-03-01T00:32:12;101702.28;;;3.28;100.00
51439;BME280;38816;51.142;-0.974;2023-03-01T00:34:37;101706.16;;;3.23;100.00
51439;BME280;38816;51.142;-0.974;2023-03-01T00:37:02;101713.47;;;3.19;100.00
51439;BME280;38816;51.142;-0.974;2023-03-01T00:39:31;101717.09;;;3.22;100.00
51439;BME280;38816;51.142;-0.974;2023-03-01T00:41:57;101714.34;;;3.19;100.00
51439;BME280;38816;51.142;-0.974;2023-03-01T00:44:22;101703.69;;;3.12;100.00
51439;BME280;38816;51.142;-0.974;2023-03-01T00:46:48;101719.91;;;3.14;100.00
51439;BME280;38816;51.142;-0.974;2023-03-01T00:49:13;101719.91;;;3.14;100.00
51439;BME280;38816;51.142;-0.974;2023-03-01T00:51:39;101703.34;;;3.07;100.00
51439;BME280;38816;51.142;-0.974;2023-03-01T00:54:08;101717.47;;;3.15;100.00
51439;BME280;38816;51.142;-0.974;2023-03-01T00:56:33;101702.47;;;3.07;100.00
51439;BME280;38816;51.142;-0.974;2023-03-01T00:58:59;101701.69;;;3.08;100.00
51439;BME280;38816;51.142;-0.974;2023-03-01T01:01:28;101701.56;;;3.06;100.00
51439;BME280;38816;51.142;-0.974;2023-03-01T01:03:59;101703.13;;;3.04;100.00
51439;BME280;38816;51.142;-0.974;2023-03-01T01:06:27;101705.09;;;3.08;100.00
51439;BME280;38816;51.142;-0.974;2023-03-01T01:08:54;101696.94;;;3.00;100.00
51439;BME280;38816;51.142;-0.974;2023-03-01T01:11:22;101706.63;;;3.06;100.00
51439;BME280;38816;51.142;-0.974;2023-03-01T01:13:48;101698.50;;;2.98;100.00
51439;BME280;38816;51.142;-0.974;2023-03-01T01:16:15;101699.38;;;2.99;100.00
51439;BME280;38816;51.142;-0.974;2023-03-01T01:18:40;101705.44;;;3.01;100.00
51439;BME280;38816;51.142;-0.974;2023-03-01T01:21:09;101701.06;;;2.98;100.00
51439;BME280;38816;51.142;-0.974;2023-03-01T01:23:36;101705.34;;;2.99;100.00
51439;BME280;38816;51.142;-0.974;2023-03-01T01:26:48;101702.91;;;3.01;100.00
51439;BME280;38816;51.142;-0.974;2023-03-01T01:28:54;101705.25;;;2.98;100.00
51439;BME280;38816;51.142;-0.974;2023-03-01T01:31:20;101692.00;;;2.90;100.00
51439;BME280;38816;51.142;-0.974;2023-03-01T01:33:48;101693.88;;;2.93;100.00
51439;BME280;38816;51.142;-0.974;2023-03-01T01:36:14;101707.88;;;2.99;100.00
51439;BME280;38816;51.142;-0.974;2023-03-01T01:38:39;101702.72;;;2.98;100.00
51439;BME280;38816;51.142;-0.974;2023-03-01T01:41:07;101691.78;;;2.87;100.00
51439;BME280;38816;51.142;-0.974;2023-03-01T01:43:34;101702.16;;;2.90;100.00
51439;BME280;38816;51.142;-0.974;2023-03-01T01:46:01;101700.28;;;2.88;100.00
51439;BME280;38816;51.142;-0.974;2023-03-01T01:48:34;101682.84;;;2.81;100.00
51439;BME280;38816;51.142;-0.974;2023-03-01T01:51:07;101698.41;;;2.85;100.00
51439;BME280;38816;51.142;-0.974;2023-03-01T01:53:35;101674.91;;;2.76;100.00
51439;BME280;38816;51.142;-0.974;2023-03-01T01:56:01;101676.78;;;2.78;100.00
51439;BME280;38816;51.142;-0.974;2023-03-01T01:58:29;101681.09;;;2.79;100.00
51439;BME280;38816;51.142;-0.974;2023-03-01T02:00:55;101665.88;;;2.79;100.00
51439;BME280;38816;51.142;-0.974;2023-03-01T02:03:30;101673.69;;;2.83;100.00
51439;BME280;38816;51.142;-0.974;2023-03-01T02:08:35;101683.50;;;2.90;100.00
51439;BME280;38816;51.142;-0.974;2023-03-01T02:11:02;101669.59;;;2.85;100.00
51439;BME280;38816;51.142;-0.974;2023-03-01T02:13:30;101659.88;;;2.79;100.00
51439;BME280;38816;51.142;-0.974;2023-03-01T02:15:56;101666.28;;;2.86;100.00
51439;BME280;38816;51.142;-0.974;2023-03-01T02:18:23;101662.97;;;2.87;100.00
51439;BME280;38816;51.142;-0.974;2023-03-01T02:23:21;101665.41;;;2.85;100.00
51439;BME280;38816;51.142;-0.974;2023-03-01T02:25:59;101651.69;;;2.83;100.00
51439;BME280;38816;51.142;-0.974;2023-03-01T02:28:29;101639.56;;;2.79;100.00
51439;BME280;38816;51.142;-0.974;2023-03-01T02:30:55;101647.31;;;2.81;100.00
51439;BME280;38816;51.142;-0.974;2023-03-01T02:33:39;101646.53;;;2.82;100.00
51439;BME280;38816;51.142;-0.974;2023-03-01T02:36:14;101622.16;;;2.72;100.00
51439;BME280;38816;51.142;-0.974;2023-03-01T02:38:41;101636.94;;;2.77;100.00
51439;BME280;38816;51.142;-0.974;2023-03-01T02:41:07;101640.47;;;2.79;100.00
51439;BME280;38816;51.142;-0.974;2023-03-01T02:43:34;101641.34;;;2.80;100.00
51439;BME280;38816;51.142;-0.974;2023-03-01T02:46:06;101636.03;;;2.77;100.00
51439;BME280;38816;51.142;-0.974;2023-03-01T02:48:50;101621.28;;;2.71;100.00
51439;BME280;38816;51.142;-0.974;2023-03-01T02:51:34;101630.31;;;2.79;100.00
51439;BME280;38816;51.142;-0.974;2023-03-01T02:56:59;101630.09;;;2.76;100.00
51439;BME280;38816;51.142;-0.974;2023-03-01T02:59:29;101623.25;;;2.75;100.00
51439;BME280;38816;51.142;-0.974;2023-03-01T03:01:56;101620.72;;;2.75;100.00
51439;BME280;38816;51.142;-0.974;2023-03-01T03:04:21;101602.97;;;2.64;100.00
51439;BME280;38816;51.142;-0.974;2023-03-01T03:06:49;101594.69;;;2.54;100.00
51439;BME280;38816;51.142;-0.974;2023-03-01T03:09:15;101607.63;;;2.58;100.00
51439;BME280;38816;51.142;-0.974;2023-03-01T03:11:41;101601.75;;;2.47;100.00
51439;BME280;38816;51.142;-0.974;2023-03-01T03:14:12;101598.91;;;2.42;100.00
51439;BME280;38816;51.142;-0.974;2023-03-01T03:16:42;101599.03;;;2.44;100.00
51439;BME280;38816;51.142;-0.974;2023-03-01T03:19:08;101619.75;;;2.50;100.00
51439;BME280;38816;51.142;-0.974;2023-03-01T03:21:33;101602.78;;;2.49;100.00
51439;BME280;38816;51.142;-0.974;2023-03-01T03:23:59;101608.03;;;2.52;100.00
51439;BME280;38816;51.142;-0.974;2023-03-01T03:26:25;101614.13;;;2.54;100.00
51439;BME280;38816;51.142;-0.974;2023-03-01T03:28:50;101612.38;;;2.53;100.00
51439;BME280;38816;51.142;-0.974;2023-03-01T03:31:16;101613.03;;;2.50;100.00
51439;BME280;38816;51.142;-0.974;2023-03-01T03:33:41;101607.72;;;2.47;100.00
51439;BME280;38816;51.142;-0.974;2023-03-01T03:36:07;101603.31;;;2.45;100.00
51439;BME280;38816;51.142;-0.974;2023-03-01T03:38:40;101599.03;;;2.44;100.00
51439;BME280;38816;51.142;-0.974;2023-03-01T03:41:07;101599.78;;;2.43;100.00
51439;BME280;38816;51.142;-0.974;2023-03-01T03:43:35;101596.81;;;2.37;100.00
51439;BME280;38816;51.142;-0.974;2023-03-01T03:46:01;101589.09;;;2.35;100.00
51439;BME280;38816;51.142;-0.974;2023-03-01T03:48:31;101593.72;;;2.41;100.00
51439;BME280;38816;51.142;-0.974;2023-03-01T03:50:57;101583.56;;;2.41;100.00
51439;BME280;38816;51.142;-0.974;2023-03-01T03:53:25;101590.41;;;2.42;100.00
51439;BME280;38816;51.142;-0.974;2023-03-01T03:55:51;101592.16;;;2.43;100.00
51439;BME280;38816;51.142;-0.974;2023-03-01T03:58:18;101583.81;;;2.44;100.00
51439;BME280;38816;51.142;-0.974;2023-03-01T04:00:45;101581.38;;;2.45;100.00
51439;BME280;38816;51.142;-0.974;2023-03-01T04:03:13;101582.47;;;2.49;100.00
51439;BME280;38816;51.142;-0.974;2023-03-01T04:05:40;101574.72;;;2.47;100.00
51439;BME280;38816;51.142;-0.974;2023-03-01T04:08:06;101576.28;;;2.45;100.00
51439;BME280;38816;51.142;-0.974;2023-03-01T04:10:44;101565.81;;;2.41;100.00
51439;BME280;38816;51.142;-0.974;2023-03-01T04:13:21;101561.06;;;2.45;100.00
51439;BME280;38816;51.142;-0.974;2023-03-01T04:15:50;101563.91;;;2.50;100.00
51439;BME280;38816;51.142;-0.974;2023-03-01T04:18:17;101571.63;;;2.51;100.00
51439;BME280;38816;51.142;-0.974;2023-03-01T04:20:43;101552.78;;;2.48;100.00
51439;BME280;38816;51.142;-0.974;2023-03-01T04:23:13;101555.44;;;2.49;100.00
51439;BME280;38816;51.142;-0.974;2023-03-01T04:25:45;101540.66;;;2.44;100.00
51439;BME280;38816;51.142;-0.974;2023-03-01T04:28:10;101547.34;;;2.55;100.00
51439;BME280;38816;51.142;-0.974;2023-03-01T04:30:37;101532.59;;;2.49;100.00
51439;BME280;38816;51.142;-0.974;2023-03-01T04:33:04;101535.91;;;2.48;100.00
51439;BME280;38816;51.142;-0.974;2023-03-01T04:35:30;101544.72;;;2.53;100.00
51439;BME280;38816;51.142;-0.974;2023-03-01T04:37:56;101539.09;;;2.46;100.00
51439;BME280;38816;51.142;-0.974;2023-03-01T04:40:21;101525.78;;;2.37;100.00
51439;BME280;38816;51.142;-0.974;2023-03-01T04:42:47;101547.25;;;2.53;100.00
51439;BME280;38816;51.142;-0.974;2023-03-01T04:45:12;101538.19;;;2.57;100.00
51439;BME280;38816;51.142;-0.974;2023-03-01T04:47:41;101534.75;;;2.57;100.00
51439;BME280;38816;51.142;-0.974;2023-03-01T04:50:08;101538.16;;;2.69;100.00
51439;BME280;38816;51.142;-0.974;2023-03-01T04:52:34;101533.44;;;2.62;100.00
51439;BME280;38816;51.142;-0.974;2023-03-01T04:55:00;101528.16;;;2.59;100.00
51439;BME280;38816;51.142;-0.974;2023-03-01T04:57:26;101534.63;;;2.67;100.00
51439;BME280;38816;51.142;-0.974;2023-03-01T04:59:51;101539.91;;;2.70;100.00
51439;BME280;38816;51.142;-0.974;2023-03-01T05:02:16;101531.72;;;2.74;100.00
51439;BME280;38816;51.142;-0.974;2023-03-01T05:04:41;101535.13;;;2.74;100.00
51439;BME280;38816;51.142;-0.974;2023-03-01T05:07:07;101532.72;;;2.76;100.00
51439;BME280;38816;51.142;-0.974;2023-03-01T05:09:32;101542.25;;;2.92;100.00
51439;BME280;38816;51.142;-0.974;2023-03-01T05:11:58;101524.28;;;2.89;100.00
51439;BME280;38816;51.142;-0.974;2023-03-01T05:14:23;101521.84;;;2.90;100.00
51439;BME280;38816;51.142;-0.974;2023-03-01T05:16:48;101524.78;;;2.96;100.00
51439;BME280;38816;51.142;-0.974;2023-03-01T05:19:14;101535.16;;;2.99;100.00
51439;BME280;38816;51.142;-0.974;2023-03-01T05:21:48;101543.66;;;3.00;100.00
51439;BME280;38816;51.142;-0.974;2023-03-01T05:24:30;101528.19;;;2.97;100.00
51439;BME280;38816;51.142;-0.974;2023-03-01T05:26:56;101517.63;;;2.91;100.00
51439;BME280;38816;51.142;-0.974;2023-03-01T05:29:23;101519.63;;;2.95;100.00
51439;BME280;38816;51.142;-0.974;2023-03-01T05:31:55;101527.63;;;3.01;100.00
51439;BME280;38816;51.142;-0.974;2023-03-01T05:34:33;101526.88;;;3.02;100.00
51439;BME280;38816;51.142;-0.974;2023-03-01T05:36:59;101507.78;;;2.95;100.00
51439;BME280;38816;51.142;-0.974;2023-03-01T05:39:26;101519.13;;;3.00;100.00
51439;BME280;38816;51.142;-0.974;2023-03-01T05:41:53;101512.56;;;2.91;100.00
51439;BME280;38816;51.142;-0.974;2023-03-01T05:44:19;101514.88;;;2.88;100.00
51439;BME280;38816;51.142;-0.974;2023-03-01T05:46:44;101502.97;;;2.87;100.00
51439;BME280;38816;51.142;-0.974;2023-03-01T05:49:10;101521.06;;;2.91;100.00
51439;BME280;38816;51.142;-0.974;2023-03-01T05:51:39;101521.75;;;2.89;100.00
51439;BME280;38816;51.142;-0.974;2023-03-01T05:54:04;101517.25;;;2.85;100.00
51439;BME280;38816;51.142;-0.974;2023-03-01T05:56:32;101520.75;;;2.87;100.00
51439;BME280;38816;51.142;-0.974;2023-03-01T05:58:58;101515.88;;;2.90;100.00
51439;BME280;38816;51.142;-0.974;2023-03-01T06:01:23;101519.63;;;2.95;100.00
51439;BME280;38816;51.142;-0.974;2023-03-01T06:03:48;101514.88;;;2.88;100.00
51439;BME280;38816;51.142;-0.974;2023-03-01T06:06:14;101512.34;;;2.88;100.00
51439;BME280;38816;51.142;-0.974;2023-03-01T06:08:39;101509.72;;;2.86;100.00
51439;BME280;38816;51.142;-0.974;2023-03-01T06:11:04;101515.88;;;2.90;100.00
51439;BME280;38816;51.142;-0.974;2023-03-01T06:13:30;101509.13;;;2.90;100.00
51439;BME280;38816;51.142;-0.974;2023-03-01T06:15:55;101509.06;;;2.89;100.00
51439;BME280;38816;51.142;-0.974;2023-03-01T06:18:21;101509.97;;;2.77;100.00
51439;BME280;38816;51.142;-0.974;2023-03-01T06:20:53;101515.75;;;2.75;100.00
51439;BME280;38816;51.142;-0.974;2023-03-01T06:23:18;101510.69;;;2.63;100.00
51439;BME280;38816;51.142;-0.974;2023-03-01T06:25:44;101511.88;;;2.68;100.00
51439;BME280;38816;51.142;-0.974;2023-03-01T06:28:09;101510.47;;;2.60;100.00
51439;BME280;38816;51.142;-0.974;2023-03-01T06:30:34;101516.00;;;2.66;100.00
51439;BME280;38816;51.142;-0.974;2023-03-01T06:33:00;101512.66;;;2.67;100.00
51439;BME280;38816;51.142;-0.974;2023-03-01T06:35:29;101513.63;;;2.69;100.00
51439;BME280;38816;51.142;-0.974;2023-03-01T06:37:55;101502.28;;;2.64;100.00
51439;BME280;38816;51.142;-0.974;2023-03-01T06:40:21;101502.50;;;2.67;100.00
51439;BME280;38816;51.142;-0.974;2023-03-01T06:42:51;101517.97;;;2.70;100.00
51439;BME280;38816;51.142;-0.974;2023-03-01T06:45:18;101509.34;;;2.68;100.00
51439;BME280;38816;51.142;-0.974;2023-03-01T06:47:43;101511.09;;;2.69;100.00
51439;BME280;38816;51.142;-0.974;2023-03-01T06:50:09;101520.91;;;2.76;100.00
51439;BME280;38816;51.142;-0.974;2023-03-01T06:52:35;101523.75;;;2.81;100.00
51439;BME280;38816;51.142;-0.974;2023-03-01T06:55:01;101523.66;;;2.79;100.00
51439;BME280;38816;51.142;-0.974;2023-03-01T06:57:27;101533.91;;;2.81;100.00
51439;BME280;38816;51.142;-0.974;2023-03-01T06:59:52;101529.63;;;2.80;100.00
51439;BME280;38816;51.142;-0.974;2023-03-01T07:02:18;101524.63;;;2.82;100.00
51439;BME280;38816;51.142;-0.974;2023-03-01T07:04:43;101528.16;;;2.84;100.00
51439;BME280;38816;51.142;-0.974;2023-03-01T07:07:09;101537.38;;;2.95;100.00
51439;BME280;38816;51.142;-0.974;2023-03-01T07:09:34;101541.69;;;2.96;100.00
51439;BME280;38816;51.142;-0.974;2023-03-01T07:12:00;101535.31;;;2.89;100.00
51439;BME280;38816;51.142;-0.974;2023-03-01T07:14:26;101527.22;;;2.95;100.00
51439;BME280;38816;51.142;-0.974;2023-03-01T07:16:52;101527.31;;;2.96;100.00
51439;BME280;38816;51.142;-0.974;2023-03-01T07:19:18;101535.38;;;3.02;100.00
51439;BME280;38816;51.142;-0.974;2023-03-01T07:21:44;101528.63;;;3.03;100.00
51439;BME280;38816;51.142;-0.974;2023-03-01T07:24:09;101530.38;;;3.04;100.00
51439;BME280;38816;51.142;-0.974;2023-03-01T07:26:35;101523.66;;;3.04;100.00
51439;BME280;38816;51.142;-0.974;2023-03-01T07:29:02;101531.47;;;3.08;100.00
51439;BME280;38816;51.142;-0.974;2023-03-01T07:31:28;101533.25;;;3.09;100.00
51439;BME280;38816;51.142;-0.974;2023-03-01T07:33:54;101538.53;;;3.12;100.00
51439;BME280;38816;51.142;-0.974;2023-03-01T07:36:20;101545.69;;;3.17;100.00
51439;BME280;38816;51.142;-0.974;2023-03-01T07:38:45;101544.72;;;3.15;100.00
51439;BME280;38816;51.142;-0.974;2023-03-01T07:41:11;101539.41;;;3.12;100.00
51439;BME280;38816;51.142;-0.974;2023-03-01T07:43:36;101534.22;;;3.11;100.00
51439;BME280;38816;51.142;-0.974;2023-03-01T07:46:03;101545.69;;;3.17;100.00
51439;BME280;38816;51.142;-0.974;2023-03-01T07:48:29;101536.59;;;3.21;100.00
51439;BME280;38816;51.142;-0.974;2023-03-01T07:51:02;101542.38;;;3.32;100.00
51439;BME280;38816;51.142;-0.974;2023-03-01T07:53:27;101524.78;;;3.21;100.00
51439;BME280;38816;51.142;-0.974;2023-03-01T07:56:08;101526.63;;;3.24;100.00
51439;BME280;38816;51.142;-0.974;2023-03-01T07:58:35;101526.31;;;3.19;100.00
51439;BME280;38816;51.142;-0.974;2023-03-01T08:01:02;101537.09;;;3.28;100.00
51439;BME280;38816;51.142;-0.974;2023-03-01T08:03:28;101539.84;;;3.32;100.00
51439;BME280;38816;51.142;-0.974;2023-03-01T08:05:54;101534.47;;;3.27;100.00
51439;BME280;38816;51.142;-0.974;2023-03-01T08:08:19;101537.53;;;3.35;100.00
51439;BME280;38816;51.142;-0.974;2023-03-01T08:10:44;101528.88;;;3.33;100.00
51439;BME280;38816;51.142;-0.974;2023-03-01T08:13:10;101530.69;;;3.34;100.00
51439;BME280;38816;51.142;-0.974;2023-03-01T08:15:35;101518.13;;;3.23;100.00
51439;BME280;38816;51.142;-0.974;2023-03-01T08:18:00;101524.03;;;3.36;100.00
51439;BME280;38816;51.142;-0.974;2023-03-01T08:20:26;101520.25;;;3.42;100.00
51439;BME280;38816;51.142;-0.974;2023-03-01T08:22:51;101519.31;;;3.42;100.00
51439;BME280;38816;51.142;-0.974;2023-03-01T08:25:17;101510.06;;;3.42;100.00
51439;BME280;38816;51.142;-0.974;2023-03-01T08:27:42;101513.78;;;3.47;100.00
51439;BME280;38816;51.142;-0.974;2023-03-01T08:30:08;101523.25;;;3.50;100.00
51439;BME280;38816;51.142;-0.974;2023-03-01T08:32:39;101514.84;;;3.51;100.00
51439;BME280;38816;51.142;-0.974;2023-03-01T08:35:05;101515.25;;;3.57;100.00
51439;BME280;38816;51.142;-0.974;2023-03-01T08:37:31;101533.84;;;3.56;100.00
51439;BME280;38816;51.142;-0.974;2023-03-01T08:40:01;101516.72;;;3.53;100.00
51439;BME280;38816;51.142;-0.974;2023-03-01T08:42:26;101535.78;;;3.60;100.00
51439;BME280;38816;51.142;-0.974;2023-03-01T08:44:52;101533.53;;;3.65;100.00
51439;BME280;38816;51.142;-0.974;2023-03-01T08:47:17;101534.31;;;3.64;100.00
51439;BME280;38816;51.142;-0.974;2023-03-01T08:49:42;101513.69;;;3.59;100.00
51439;BME280;38816;51.142;-0.974;2023-03-01T08:52:08;101518.97;;;3.62;100.00
51439;BME280;38816;51.142;-0.974;2023-03-01T08:54:33;101524.75;;;3.73;100.00
51439;BME280;38816;51.142;-0.974;2023-03-01T08:57:01;101523.59;;;3.81;100.00
51439;BME280;38816;51.142;-0.974;2023-03-01T08:59:26;101507.81;;;3.73;100.00
51439;BME280;38816;51.142;-0.974;2023-03-01T09:01:53;101511.16;;;3.86;100.00
51439;BME280;38816;51.142;-0.974;2023-03-01T09:04:19;101518.00;;;3.87;100.00
51439;BME280;38816;51.142;-0.974;2023-03-01T09:06:44;101506.66;;;3.81;100.00
51439;BME280;38816;51.142;-0.974;2023-03-01T09:09:15;101505.56;;;3.91;100.00
51439;BME280;38816;51.142;-0.974;2023-03-01T09:11:42;101498.13;;;3.94;100.00
51439;BME280;38816;51.142;-0.974;2023-03-01T09:14:07;101496.31;;;3.92;100.00
51439;BME280;38816;51.142;-0.974;2023-03-01T09:16:33;101499.09;;;4.10;100.00
51439;BME280;38816;51.142;-0.974;2023-03-01T09:19:01;101501.81;;;4.26;100.00
51439;BME280;38816;51.142;-0.974;2023-03-01T09:21:26;101487.97;;;4.36;100.00
51439;BME280;38816;51.142;-0.974;2023-03-01T09:23:52;101497.34;;;4.50;100.00
51439;BME280;38816;51.142;-0.974;2023-03-01T09:26:21;101496.34;;;4.61;100.00
51439;BME280;38816;51.142;-0.974;2023-03-01T09:28:49;101482.41;;;4.69;100.00
51439;BME280;38816;51.142;-0.974;2023-03-01T09:31:16;101486.56;;;4.82;100.00
51439;BME280;38816;51.142;-0.974;2023-03-01T09:33:42;101463.63;;;4.82;100.00
51439;BME280;38816;51.142;-0.974;2023-03-01T09:36:20;101476.38;;;4.82;100.00
51439;BME280;38816;51.142;-0.974;2023-03-01T09:38:46;101464.50;;;4.82;100.00
51439;BME280;38816;51.142;-0.974;2023-03-01T09:43:52;101462.13;;;4.86;100.00
51439;BME280;38816;51.142;-0.974;2023-03-01T09:46:22;101455.28;;;4.85;100.00
51439;BME280;38816;51.142;-0.974;2023-03-01T09:48:51;101443.16;;;4.80;100.00
51439;BME280;38816;51.142;-0.974;2023-03-01T09:51:34;101459.09;;;4.91;100.00
51439;BME280;38816;51.142;-0.974;2023-03-01T09:54:02;101454.59;;;5.02;100.00
51439;BME280;38816;51.142;-0.974;2023-03-01T09:56:33;101451.41;;;5.36;100.00
51439;BME280;38816;51.142;-0.974;2023-03-01T09:59:19;101444.97;;;5.57;100.00
51439;BME280;38816;51.142;-0.974;2023-03-01T10:02:04;101451.56;;;5.68;100.00
51439;BME280;38816;51.142;-0.974;2023-03-01T10:04:45;101434.88;;;5.58;100.00
51439;BME280;38816;51.142;-0.974;2023-03-01T10:07:24;101448.03;;;5.66;100.00
51439;BME280;38816;51.142;-0.974;2023-03-01T10:09:52;101436.03;;;5.64;100.00
51439;BME280;38816;51.142;-0.974;2023-03-01T10:12:26;101444.44;;;5.77;100.00
51439;BME280;38816;51.142;-0.974;2023-03-01T10:17:37;101434.09;;;5.59;100.00
51439;BME280;38816;51.142;-0.974;2023-03-01T10:20:22;101440.75;;;5.57;100.00
51439;BME280;38816;51.142;-0.974;2023-03-01T10:22:49;101433.09;;;5.57;98.14
51439;BME280;38816;51.142;-0.974;2023-03-01T10:30:43;101440.34;;;5.35;100.00
51439;BME280;38816;51.142;-0.974;2023-03-01T10:33:23;101428.75;;;5.25;100.00
51439;BME280;38816;51.142;-0.974;2023-03-01T10:35:50;101422.44;;;5.33;100.00
51439;BME280;38816;51.142;-0.974;2023-03-01T10:38:17;101426.09;;;5.39;100.00
51439;BME280;38816;51.142;-0.974;2023-03-01T10:40:55;101424.44;;;5.54;100.00
51439;BME280;38816;51.142;-0.974;2023-03-01T10:43:23;101420.28;;;5.56;100.00
51439;BME280;38816;51.142;-0.974;2023-03-01T10:45:49;101424.38;;;5.69;100.00
51439;BME280;38816;51.142;-0.974;2023-03-01T10:48:22;101436.47;;;5.88;100.00
51439;BME280;38816;51.142;-0.974;2023-03-01T10:51:06;101429.50;;;5.85;100.00
51439;BME280;38816;51.142;-0.974;2023-03-01T10:53:41;101424.06;;;5.94;100.00
51439;BME280;38816;51.142;-0.974;2023-03-01T10:56:12;101432.31;;;5.90;100.00
51439;BME280;38816;51.142;-0.974;2023-03-01T11:01:32;101416.13;;;6.04;99.33
51439;BME280;38816;51.142;-0.974;2023-03-01T11:06:37;101394.66;;;6.33;97.52
51439;BME280;38816;51.142;-0.974;2023-03-01T11:09:35;101403.38;;;6.53;96.41
51439;BME280;38816;51.142;-0.974;2023-03-01T11:12:05;101388.81;;;6.52;96.86
51439;BME280;38816;51.142;-0.974;2023-03-01T11:14:35;101390.41;;;6.66;96.90
51439;BME280;38816;51.142;-0.974;2023-03-01T11:17:12;101391.91;;;6.79;96.06
51439;BME280;38816;51.142;-0.974;2023-03-01T11:22:46;101361.13;;;6.94;95.66
51439;BME280;38816;51.142;-0.974;2023-03-01T11:25:14;101390.72;;;7.24;94.77
51439;BME280;38816;51.142;-0.974;2023-03-01T11:27:43;101385.25;;;7.34;93.07
51439;BME280;38816;51.142;-0.974;2023-03-01T11:30:29;101384.94;;;7.46;91.05
51439;BME280;38816;51.142;-0.974;2023-03-01T11:35:35;101378.59;;;7.20;92.78
51439;BME280;38816;51.142;-0.974;2023-03-01T11:38:20;101377.38;;;7.12;92.11
51439;BME280;38816;51.142;-0.974;2023-03-01T11:40:51;101373.94;;;6.77;93.79
51439;BME280;38816;51.142;-0.974;2023-03-01T11:43:35;101379.25;;;6.48;96.21
51439;BME280;38816;51.142;-0.974;2023-03-01T11:48:55;101383.69;;;5.87;100.00
51439;BME280;38816;51.142;-0.974;2023-03-01T11:54:09;101378.91;;;5.62;100.00
51439;BME280;38816;51.142;-0.974;2023-03-01T11:56:43;101361.53;;;5.54;100.00
51439;BME280;38816;51.142;-0.974;2023-03-01T11:59:41;101364.03;;;5.69;100.00
51439;BME280;38816;51.142;-0.974;2023-03-01T12:02:47;101364.59;;;5.80;100.00
51439;BME280;38816;51.142;-0.974;2023-03-01T12:18:25;101339.31;;;5.99;100.00
51439;BME280;38816;51.142;-0.974;2023-03-01T12:28:49;101329.28;;;5.88;100.00
51439;BME280;38816;51.142;-0.974;2023-03-01T12:34:14;101317.59;;;6.24;100.00
51439;BME280;38816;51.142;-0.974;2023-03-01T12:48:29;101282.19;;;6.48;95.77
51439;BME280;38816;51.142;-0.974;2023-03-01T12:50:59;101262.69;;;6.32;96.49
51439;BME280;38816;51.142;-0.974;2023-03-01T12:53:36;101264.94;;;6.44;95.29
51439;BME280;38816;51.142;-0.974;2023-03-01T12:56:26;101274.41;;;6.45;96.09
51439;BME280;38816;51.142;-0.974;2023-03-01T13:09:39;101256.81;;;6.69;93.73
51439;BME280;38816;51.142;-0.974;2023-03-01T13:17:51;101251.78;;;6.70;92.20
51439;BME280;38816;51.142;-0.974;2023-03-01T13:20:20;101251.94;;;6.73;91.99
51439;BME280;38816;51.142;-0.974;2023-03-01T13:22:47;101255.50;;;6.59;93.52
51439;BME280;38816;51.142;-0.974;2023-03-01T13:25:19;101246.38;;;6.46;94.80
51439;BME280;38816;51.142;-0.974;2023-03-01T13:27:46;101241.22;;;6.63;95.67
51439;BME280;38816;51.142;-0.974;2023-03-01T13:36:02;101217.44;;;7.38;94.50
51439;BME280;38816;51.142;-0.974;2023-03-01T13:38:47;101213.41;;;7.63;92.35
51439;BME280;38816;51.142;-0.974;2023-03-01T13:41:14;101217.06;;;7.68;90.80
51439;BME280;38816;51.142;-0.974;2023-03-01T13:43:42;101219.41;;;7.63;90.54
51439;BME280;38816;51.142;-0.974;2023-03-01T13:46:16;101208.09;;;7.39;91.35
51439;BME280;38816;51.142;-0.974;2023-03-01T13:48:45;101204.44;;;7.33;93.09
51439;BME280;38816;51.142;-0.974;2023-03-01T13:51:12;101203.50;;;7.31;93.24
51439;BME280;38816;51.142;-0.974;2023-03-01T13:53:46;101199.03;;;7.08;93.04
51439;BME280;38816;51.142;-0.974;2023-03-01T13:56:20;101211.97;;;6.93;93.34
51439;BME280;38816;51.142;-0.974;2023-03-01T13:58:50;101194.47;;;6.83;94.68
51439;BME280;38816;51.142;-0.974;2023-03-01T14:01:29;101189.66;;;6.89;94.21
51439;BME280;38816;51.142;-0.974;2023-03-01T14:03:58;101205.03;;;7.08;93.07
51439;BME280;38816;51.142;-0.974;2023-03-01T14:06:31;101201.00;;;7.14;94.61
51439;BME280;38816;51.142;-0.974;2023-03-01T14:09:20;101205.38;;;7.16;94.55
51439;BME280;38816;51.142;-0.974;2023-03-01T14:15:19;101185.47;;;7.28;94.02
51439;BME280;38816;51.142;-0.974;2023-03-01T14:20:27;101170.06;;;7.07;97.80
51439;BME280;38816;51.142;-0.974;2023-03-01T14:22:58;101170.78;;;7.05;99.09
51439;BME280;38816;51.142;-0.974;2023-03-01T14:25:27;101173.03;;;7.17;99.84
51439;BME280;38816;51.142;-0.974;2023-03-01T14:30:37;101163.81;;;7.40;97.70